sensor_id;sensor_type;location;lat;lon;timestamp;P1;durP1;ratioP1;P2;durP2;ratioP2
14778;SDS011;7481;53.750;10.570;2023-01-01T00:02:37;18.15;;;10.57;;
14778;SDS011;7481;53.750;10.570;2023-01-01T00:05:24;13.07;;;8.33;;
14778;SDS011;7481;53.750;10.570;2023-01-01T00:08:11;15.33;;;8.77;;
14778;SDS011;7481;53.750;10.570;2023-01-01T00:11:02;15.73;;;7.73;;
14778;SDS011;7481;53.750;10.570;2023-01-01T00:13:53;15.87;;;8.10;;
14778;SDS011;7481;53.750;10.570;2023-01-01T00:16:40;13.30;;;8.07;;
14778;SDS011;7481;53.750;10.570;2023-01-01T00:19:27;12.93;;;7.83;;
14778;SDS011;7481;53.750;10.570;2023-01-01T00:22:14;12.13;;;6.60;;
14778;SDS011;7481;53.750;10.570;2023-01-01T00:25:21;14.20;;;6.87;;
14778;SDS011;7481;53.750;10.570;2023-01-01T00:28:09;13.33;;;6.47;;
14778;SDS011;7481;53.750;10.570;2023-01-01T00:30:58;11.73;;;6.13;;
14778;SDS011;7481;53.750;10.570;2023-01-01T00:33:49;16.00;;;5.83;;
14778;SDS011;7481;53.750;10.570;2023-01-01T00:36:36;13.87;;;5.93;;
14778;SDS011;7481;53.750;10.570;2023-01-01T00:39:24;10.83;;;6.00;;
14778;SDS011;7481;53.750;10.570;2023-01-01T00:42:11;13.87;;;5.07;;
14778;SDS011;7481;53.750;10.570;2023-01-01T00:44:58;10.60;;;5.33;;
14778;SDS011;7481;53.750;10.570;2023-01-01T00:47:46;13.70;;;4.97;;
14778;SDS011;7481;53.750;10.570;2023-01-01T00:50:33;11.70;;;5.43;;
14778;SDS011;7481;53.750;10.570;2023-01-01T00:53:21;9.83;;;4.43;;
14778;SDS011;7481;53.750;10.570;2023-01-01T00:56:08;10.53;;;5.13;;
14778;SDS011;7481;53.750;10.570;2023-01-01T00:58:56;12.77;;;4.90;;
14778;SDS011;7481;53.750;10.570;2023-01-01T01:01:47;9.70;;;4.73;;
14778;SDS011;7481;53.750;10.570;2023-01-01T01:04:34;9.93;;;4.60;;
14778;SDS011;7481;53.750;10.570;2023-01-01T01:07:22;10.87;;;4.93;;
14778;SDS011;7481;53.750;10.570;2023-01-01T01:10:09;12.57;;;4.77;;
14778;SDS011;7481;53.750;10.570;2023-01-01T01:12:57;11.33;;;4.17;;
14778;SDS011;7481;53.750;10.570;2023-01-01T01:15:45;8.83;;;4.67;;
14778;SDS011;7481;53.750;10.570;2023-01-01T01:18:40;9.97;;;4.77;;
14778;SDS011;7481;53.750;10.570;2023-01-01T01:21:28;14.90;;;5.10;;
14778;SDS011;7481;53.750;10.570;2023-01-01T01:24:16;12.73;;;5.27;;
14778;SDS011;7481;53.750;10.570;2023-01-01T01:27:04;11.87;;;4.70;;
14778;SDS011;7481;53.750;10.570;2023-01-01T01:29:51;12.67;;;4.47;;
14778;SDS011;7481;53.750;10.570;2023-01-01T01:32:39;14.90;;;4.83;;
14778;SDS011;7481;53.750;10.570;2023-01-01T01:35:26;10.13;;;4.40;;
14778;SDS011;7481;53.750;10.570;2023-01-01T01:38:15;8.43;;;4.73;;
14778;SDS011;7481;53.750;10.570;2023-01-01T01:41:02;12.93;;;4.57;;
14778;SDS011;7481;53.750;10.570;2023-01-01T01:43:52;9.67;;;4.13;;
14778;SDS011;7481;53.750;10.570;2023-01-01T01:46:40;11.00;;;4.50;;
14778;SDS011;7481;53.750;10.570;2023-01-01T01:49:29;13.33;;;3.93;;
14778;SDS011;7481;53.750;10.570;2023-01-01T01:52:18;10.90;;;4.43;;
14778;SDS011;7481;53.750;10.570;2023-01-01T01:55:06;9.60;;;4.37;;
14778;SDS011;7481;53.750;10.570;2023-01-01T01:57:54;11.10;;;4.33;;
14778;SDS011;7481;53.750;10.570;2023-01-01T02:00:41;9.40;;;4.83;;
14778;SDS011;7481;53.750;10.570;2023-01-01T02:03:30;11.63;;;4.03;;
14778;SDS011;7481;53.750;10.570;2023-01-01T02:06:19;16.53;;;4.13;;
14778;SDS011;7481;53.750;10.570;2023-01-01T02:09:07;6.93;;;3.50;;
14778;SDS011;7481;53.750;10.570;2023-01-01T02:11:54;10.87;;;4.10;;
14778;SDS011;7481;53.750;10.570;2023-01-01T02:14:42;9.90;;;4.07;;
14778;SDS011;7481;53.750;10.570;2023-01-01T02:17:33;9.50;;;3.80;;
14778;SDS011;7481;53.750;10.570;2023-01-01T02:20:31;7.53;;;4.03;;
14778;SDS011;7481;53.750;10.570;2023-01-01T02:26:19;10.90;;;4.40;;
14778;SDS011;7481;53.750;10.570;2023-01-01T02:29:28;10.33;;;4.03;;
14778;SDS011;7481;53.750;10.570;2023-01-01T02:32:21;14.30;;;3.93;;
14778;SDS011;7481;53.750;10.570;2023-01-01T02:35:17;13.23;;;4.37;;
14778;SDS011;7481;53.750;10.570;2023-01-01T02:38:28;10.47;;;4.83;;
14778;SDS011;7481;53.750;10.570;2023-01-01T02:44:10;7.07;;;4.20;;
14778;SDS011;7481;53.750;10.570;2023-01-01T02:47:04;11.57;;;4.27;;
14778;SDS011;7481;53.750;10.570;2023-01-01T02:50:00;11.37;;;4.20;;
14778;SDS011;7481;53.750;10.570;2023-01-01T02:52:51;7.47;;;3.57;;
14778;SDS011;7481;53.750;10.570;2023-01-01T02:55:47;15.20;;;4.53;;
14778;SDS011;7481;53.750;10.570;2023-01-01T02:58:40;7.00;;;3.70;;
14778;SDS011;7481;53.750;10.570;2023-01-01T03:04:49;10.53;;;4.83;;
14778;SDS011;7481;53.750;10.570;2023-01-01T03:08:01;10.13;;;4.60;;
14778;SDS011;7481;53.750;10.570;2023-01-01T03:13:52;8.07;;;4.60;;
14778;SDS011;7481;53.750;10.570;2023-01-01T03:16:49;6.90;;;4.37;;
14778;SDS011;7481;53.750;10.570;2023-01-01T03:19:38;13.40;;;4.73;;
14778;SDS011;7481;53.750;10.570;2023-01-01T03:22:28;12.57;;;4.53;;
14778;SDS011;7481;53.750;10.570;2023-01-01T03:25:21;9.67;;;4.37;;
14778;SDS011;7481;53.750;10.570;2023-01-01T03:28:13;9.37;;;4.40;;
14778;SDS011;7481;53.750;10.570;2023-01-01T03:31:02;11.40;;;4.70;;
14778;SDS011;7481;53.750;10.570;2023-01-01T03:34:06;8.93;;;4.43;;
14778;SDS011;7481;53.750;10.570;2023-01-01T03:36:55;9.57;;;4.70;;
14778;SDS011;7481;53.750;10.570;2023-01-01T03:39:46;8.80;;;4.70;;
14778;SDS011;7481;53.750;10.570;2023-01-01T03:42:35;9.87;;;4.70;;
14778;SDS011;7481;53.750;10.570;2023-01-01T03:45:25;8.60;;;4.67;;
14778;SDS011;7481;53.750;10.570;2023-01-01T03:48:15;9.87;;;4.83;;
14778;SDS011;7481;53.750;10.570;2023-01-01T03:51:14;15.37;;;5.87;;
14778;SDS011;7481;53.750;10.570;2023-01-01T03:54:06;10.20;;;5.10;;
14778;SDS011;7481;53.750;10.570;2023-01-01T03:56:58;9.70;;;5.10;;
14778;SDS011;7481;53.750;10.570;2023-01-01T03:59:57;10.07;;;5.23;;
14778;SDS011;7481;53.750;10.570;2023-01-01T04:02:50;9.80;;;5.70;;
14778;SDS011;7481;53.750;10.570;2023-01-01T04:05:39;12.23;;;5.60;;
14778;SDS011;7481;53.750;10.570;2023-01-01T04:08:27;8.77;;;5.50;;
14778;SDS011;7481;53.750;10.570;2023-01-01T04:11:16;13.10;;;5.40;;
14778;SDS011;7481;53.750;10.570;2023-01-01T04:17:16;12.87;;;6.00;;
14778;SDS011;7481;53.750;10.570;2023-01-01T04:20:04;12.03;;;5.27;;
14778;SDS011;7481;53.750;10.570;2023-01-01T04:22:56;12.10;;;6.00;;
14778;SDS011;7481;53.750;10.570;2023-01-01T04:25:43;9.73;;;5.40;;
14778;SDS011;7481;53.750;10.570;2023-01-01T04:28:31;16.40;;;5.73;;
14778;SDS011;7481;53.750;10.570;2023-01-01T04:31:18;9.70;;;5.40;;
14778;SDS011;7481;53.750;10.570;2023-01-01T04:34:05;12.43;;;5.70;;
14778;SDS011;7481;53.750;10.570;2023-01-01T04:36:53;15.00;;;5.80;;
14778;SDS011;7481;53.750;10.570;2023-01-01T04:39:40;11.67;;;5.63;;
14778;SDS011;7481;53.750;10.570;2023-01-01T04:42:28;10.77;;;5.30;;
14778;SDS011;7481;53.750;10.570;2023-01-01T04:45:15;10.03;;;5.47;;
14778;SDS011;7481;53.750;10.570;2023-01-01T04:48:03;10.10;;;5.60;;
14778;SDS011;7481;53.750;10.570;2023-01-01T04:50:58;10.97;;;5.87;;
14778;SDS011;7481;53.750;10.570;2023-01-01T04:53:46;9.47;;;5.30;;
14778;SDS011;7481;53.750;10.570;2023-01-01T04:56:33;10.73;;;5.20;;
14778;SDS011;7481;53.750;10.570;2023-01-01T04:59:20;9.87;;;5.10;;
14778;SDS011;7481;53.750;10.570;2023-01-01T05:02:08;8.93;;;5.40;;
14778;SDS011;7481;53.750;10.570;2023-01-01T05:04:56;9.03;;;4.63;;
14778;SDS011;7481;53.750;10.570;2023-01-01T05:07:43;10.13;;;4.90;;
14778;SDS011;7481;53.750;10.570;2023-01-01T05:10:31;11.77;;;4.90;;
14778;SDS011;7481;53.750;10.570;2023-01-01T05:13:18;11.83;;;4.80;;
14778;SDS011;7481;53.750;10.570;2023-01-01T05:16:06;8.70;;;4.63;;
14778;SDS011;7481;53.750;10.570;2023-01-01T05:18:53;10.70;;;5.03;;
14778;SDS011;7481;53.750;10.570;2023-01-01T05:21:41;10.50;;;4.93;;
14778;SDS011;7481;53.750;10.570;2023-01-01T05:24:31;12.73;;;4.83;;
14778;SDS011;7481;53.750;10.570;2023-01-01T05:27:21;10.83;;;4.83;;
14778;SDS011;7481;53.750;10.570;2023-01-01T05:30:09;9.90;;;4.40;;
14778;SDS011;7481;53.750;10.570;2023-01-01T05:32:56;10.23;;;4.30;;
14778;SDS011;7481;53.750;10.570;2023-01-01T05:35:44;7.87;;;4.17;;
14778;SDS011;7481;53.750;10.570;2023-01-01T05:38:31;6.23;;;3.43;;
14778;SDS011;7481;53.750;10.570;2023-01-01T05:41:19;6.70;;;4.13;;
14778;SDS011;7481;53.750;10.570;2023-01-01T05:44:07;10.33;;;3.63;;
14778;SDS011;7481;53.750;10.570;2023-01-01T05:46:55;8.27;;;4.10;;
14778;SDS011;7481;53.750;10.570;2023-01-01T05:49:42;9.97;;;3.83;;
14778;SDS011;7481;53.750;10.570;2023-01-01T05:52:29;8.93;;;3.83;;
14778;SDS011;7481;53.750;10.570;2023-01-01T05:55:16;8.63;;;3.77;;
14778;SDS011;7481;53.750;10.570;2023-01-01T05:58:03;8.97;;;3.77;;
14778;SDS011;7481;53.750;10.570;2023-01-01T06:00:50;7.47;;;3.80;;
14778;SDS011;7481;53.750;10.570;2023-01-01T06:03:37;8.53;;;3.73;;
14778;SDS011;7481;53.750;10.570;2023-01-01T06:06:26;7.97;;;3.83;;
14778;SDS011;7481;53.750;10.570;2023-01-01T06:09:14;6.13;;;3.50;;
14778;SDS011;7481;53.750;10.570;2023-01-01T06:12:01;7.00;;;3.77;;
14778;SDS011;7481;53.750;10.570;2023-01-01T06:14:48;11.00;;;3.77;;
14778;SDS011;7481;53.750;10.570;2023-01-01T06:17:36;7.57;;;3.47;;
14778;SDS011;7481;53.750;10.570;2023-01-01T06:20:23;8.33;;;3.80;;
14778;SDS011;7481;53.750;10.570;2023-01-01T06:23:10;7.67;;;3.90;;
14778;SDS011;7481;53.750;10.570;2023-01-01T06:26:02;7.67;;;4.03;;
14778;SDS011;7481;53.750;10.570;2023-01-01T06:28:55;7.23;;;3.50;;
14778;SDS011;7481;53.750;10.570;2023-01-01T06:31:42;9.13;;;4.00;;
14778;SDS011;7481;53.750;10.570;2023-01-01T06:34:29;7.93;;;3.73;;
14778;SDS011;7481;53.750;10.570;2023-01-01T06:37:16;6.63;;;3.30;;
14778;SDS011;7481;53.750;10.570;2023-01-01T06:40:03;4.13;;;2.87;;
14778;SDS011;7481;53.750;10.570;2023-01-01T06:42:50;9.57;;;3.50;;
14778;SDS011;7481;53.750;10.570;2023-01-01T06:45:37;9.43;;;2.97;;
14778;SDS011;7481;53.750;10.570;2023-01-01T06:48:24;5.00;;;2.87;;
14778;SDS011;7481;53.750;10.570;2023-01-01T06:51:16;9.80;;;3.33;;
14778;SDS011;7481;53.750;10.570;2023-01-01T06:54:04;9.83;;;3.37;;
14778;SDS011;7481;53.750;10.570;2023-01-01T06:56:52;7.67;;;3.10;;
14778;SDS011;7481;53.750;10.570;2023-01-01T06:59:39;8.87;;;2.87;;
14778;SDS011;7481;53.750;10.570;2023-01-01T07:02:27;5.70;;;3.17;;
14778;SDS011;7481;53.750;10.570;2023-01-01T07:05:15;28.17;;;3.57;;
14778;SDS011;7481;53.750;10.570;2023-01-01T07:08:02;9.33;;;3.70;;
14778;SDS011;7481;53.750;10.570;2023-01-01T07:10:50;8.37;;;3.17;;
14778;SDS011;7481;53.750;10.570;2023-01-01T07:13:37;10.27;;;3.50;;
14778;SDS011;7481;53.750;10.570;2023-01-01T07:16:24;5.00;;;2.97;;
14778;SDS011;7481;53.750;10.570;2023-01-01T07:19:12;8.47;;;3.67;;
14778;SDS011;7481;53.750;10.570;2023-01-01T07:21:59;8.40;;;3.17;;
14778;SDS011;7481;53.750;10.570;2023-01-01T07:24:47;11.43;;;3.10;;
14778;SDS011;7481;53.750;10.570;2023-01-01T07:27:34;9.97;;;3.17;;
14778;SDS011;7481;53.750;10.570;2023-01-01T07:30:22;7.93;;;3.40;;
14778;SDS011;7481;53.750;10.570;2023-01-01T07:33:10;5.53;;;3.13;;
14778;SDS011;7481;53.750;10.570;2023-01-01T07:35:58;8.03;;;2.80;;
14778;SDS011;7481;53.750;10.570;2023-01-01T07:38:45;7.57;;;2.90;;
14778;SDS011;7481;53.750;10.570;2023-01-01T07:41:32;5.33;;;2.80;;
14778;SDS011;7481;53.750;10.570;2023-01-01T07:44:20;10.50;;;3.00;;
14778;SDS011;7481;53.750;10.570;2023-01-01T07:47:25;6.03;;;2.57;;
14778;SDS011;7481;53.750;10.570;2023-01-01T07:50:14;10.40;;;2.70;;
14778;SDS011;7481;53.750;10.570;2023-01-01T07:53:02;5.03;;;2.60;;
14778;SDS011;7481;53.750;10.570;2023-01-01T07:55:49;5.63;;;2.57;;
14778;SDS011;7481;53.750;10.570;2023-01-01T07:58:40;4.00;;;2.30;;
14778;SDS011;7481;53.750;10.570;2023-01-01T08:01:27;7.53;;;2.93;;
14778;SDS011;7481;53.750;10.570;2023-01-01T08:04:15;6.50;;;2.77;;
14778;SDS011;7481;53.750;10.570;2023-01-01T08:07:02;5.60;;;2.67;;
14778;SDS011;7481;53.750;10.570;2023-01-01T08:09:50;9.67;;;2.30;;
14778;SDS011;7481;53.750;10.570;2023-01-01T08:12:37;9.80;;;2.80;;
14778;SDS011;7481;53.750;10.570;2023-01-01T08:15:24;4.73;;;2.17;;
14778;SDS011;7481;53.750;10.570;2023-01-01T08:18:12;6.50;;;2.47;;
14778;SDS011;7481;53.750;10.570;2023-01-01T08:20:59;7.47;;;2.70;;
14778;SDS011;7481;53.750;10.570;2023-01-01T08:23:47;4.40;;;2.10;;
14778;SDS011;7481;53.750;10.570;2023-01-01T08:26:35;5.13;;;2.23;;
14778;SDS011;7481;53.750;10.570;2023-01-01T08:29:25;7.20;;;2.43;;
14778;SDS011;7481;53.750;10.570;2023-01-01T08:32:12;7.50;;;2.10;;
14778;SDS011;7481;53.750;10.570;2023-01-01T08:35:00;8.17;;;2.43;;
14778;SDS011;7481;53.750;10.570;2023-01-01T08:37:48;7.37;;;2.20;;
14778;SDS011;7481;53.750;10.570;2023-01-01T08:40:35;4.20;;;1.97;;
14778;SDS011;7481;53.750;10.570;2023-01-01T08:43:22;6.03;;;1.90;;
14778;SDS011;7481;53.750;10.570;2023-01-01T08:46:10;5.17;;;2.10;;
14778;SDS011;7481;53.750;10.570;2023-01-01T08:48:57;5.33;;;2.20;;
14778;SDS011;7481;53.750;10.570;2023-01-01T08:51:45;5.00;;;2.07;;
14778;SDS011;7481;53.750;10.570;2023-01-01T08:54:32;6.20;;;2.30;;
14778;SDS011;7481;53.750;10.570;2023-01-01T08:57:19;4.67;;;2.03;;
14778;SDS011;7481;53.750;10.570;2023-01-01T09:00:07;3.27;;;1.90;;
14778;SDS011;7481;53.750;10.570;2023-01-01T09:02:55;5.53;;;1.97;;
14778;SDS011;7481;53.750;10.570;2023-01-01T09:05:42;2.67;;;1.53;;
14778;SDS011;7481;53.750;10.570;2023-01-01T09:08:31;4.73;;;1.97;;
14778;SDS011;7481;53.750;10.570;2023-01-01T09:14:09;5.90;;;1.77;;
14778;SDS011;7481;53.750;10.570;2023-01-01T09:16:56;6.10;;;2.37;;
14778;SDS011;7481;53.750;10.570;2023-01-01T09:19:44;4.30;;;1.70;;
14778;SDS011;7481;53.750;10.570;2023-01-01T09:22:32;5.80;;;1.70;;
14778;SDS011;7481;53.750;10.570;2023-01-01T09:25:19;2.37;;;1.80;;
14778;SDS011;7481;53.750;10.570;2023-01-01T09:28:08;6.50;;;1.90;;
14778;SDS011;7481;53.750;10.570;2023-01-01T09:30:56;4.57;;;1.80;;
14778;SDS011;7481;53.750;10.570;2023-01-01T09:33:43;4.50;;;1.93;;
14778;SDS011;7481;53.750;10.570;2023-01-01T09:36:32;6.07;;;1.90;;
14778;SDS011;7481;53.750;10.570;2023-01-01T09:39:19;3.17;;;1.60;;
14778;SDS011;7481;53.750;10.570;2023-01-01T09:45:24;2.13;;;1.60;;
14778;SDS011;7481;53.750;10.570;2023-01-01T09:48:12;4.67;;;1.80;;
14778;SDS011;7481;53.750;10.570;2023-01-01T09:51:03;4.33;;;1.60;;
14778;SDS011;7481;53.750;10.570;2023-01-01T09:53:58;4.73;;;2.10;;
14778;SDS011;7481;53.750;10.570;2023-01-01T09:56:47;5.73;;;2.30;;
14778;SDS011;7481;53.750;10.570;2023-01-01T09:59:37;3.20;;;1.40;;
14778;SDS011;7481;53.750;10.570;2023-01-01T10:02:31;3.20;;;1.33;;
14778;SDS011;7481;53.750;10.570;2023-01-01T10:08:20;5.60;;;1.50;;
14778;SDS011;7481;53.750;10.570;2023-01-01T10:14:29;3.90;;;1.70;;
14778;SDS011;7481;53.750;10.570;2023-01-01T10:20:21;5.27;;;1.57;;
14778;SDS011;7481;53.750;10.570;2023-01-01T10:23:13;5.07;;;1.47;;
14778;SDS011;7481;53.750;10.570;2023-01-01T10:26:03;5.87;;;1.90;;
14778;SDS011;7481;53.750;10.570;2023-01-01T10:31:45;4.00;;;1.43;;
14778;SDS011;7481;53.750;10.570;2023-01-01T10:34:33;4.50;;;1.73;;
14778;SDS011;7481;53.750;10.570;2023-01-01T10:37:20;3.00;;;1.43;;
14778;SDS011;7481;53.750;10.570;2023-01-01T10:40:18;3.97;;;1.63;;
14778;SDS011;7481;53.750;10.570;2023-01-01T10:43:08;9.97;;;1.73;;
14778;SDS011;7481;53.750;10.570;2023-01-01T10:45:57;5.03;;;1.43;;
14778;SDS011;7481;53.750;10.570;2023-01-01T10:49:03;5.27;;;2.07;;
14778;SDS011;7481;53.750;10.570;2023-01-01T10:51:51;4.33;;;1.67;;
14778;SDS011;7481;53.750;10.570;2023-01-01T10:54:40;4.83;;;2.07;;
14778;SDS011;7481;53.750;10.570;2023-01-01T10:57:31;3.27;;;1.40;;
14778;SDS011;7481;53.750;10.570;2023-01-01T11:00:24;3.33;;;1.40;;
14778;SDS011;7481;53.750;10.570;2023-01-01T11:03:19;4.93;;;1.70;;
14778;SDS011;7481;53.750;10.570;2023-01-01T11:06:40;2.83;;;1.70;;
14778;SDS011;7481;53.750;10.570;2023-01-01T11:09:23;4.73;;;1.77;;
14778;SDS011;7481;53.750;10.570;2023-01-01T11:12:16;7.90;;;1.80;;
14778;SDS011;7481;53.750;10.570;2023-01-01T11:15:42;7.77;;;1.90;;
14778;SDS011;7481;53.750;10.570;2023-01-01T11:18:30;6.40;;;2.00;;
14778;SDS011;7481;53.750;10.570;2023-01-01T11:21:22;6.57;;;1.97;;
14778;SDS011;7481;53.750;10.570;2023-01-01T11:24:20;2.93;;;1.87;;
14778;SDS011;7481;53.750;10.570;2023-01-01T11:27:15;2.77;;;1.67;;
14778;SDS011;7481;53.750;10.570;2023-01-01T11:33:13;4.60;;;1.80;;
14778;SDS011;7481;53.750;10.570;2023-01-01T11:36:01;4.13;;;1.77;;
14778;SDS011;7481;53.750;10.570;2023-01-01T11:38:50;3.53;;;1.30;;
14778;SDS011;7481;53.750;10.570;2023-01-01T11:41:49;2.13;;;1.30;;
14778;SDS011;7481;53.750;10.570;2023-01-01T11:47:26;5.87;;;1.80;;
14778;SDS011;7481;53.750;10.570;2023-01-01T11:56:23;5.30;;;1.60;;
14778;SDS011;7481;53.750;10.570;2023-01-01T11:59:17;3.67;;;1.60;;
14778;SDS011;7481;53.750;10.570;2023-01-01T12:02:10;5.93;;;1.57;;
14778;SDS011;7481;53.750;10.570;2023-01-01T12:05:07;5.47;;;1.70;;
14778;SDS011;7481;53.750;10.570;2023-01-01T12:07:56;4.80;;;2.03;;
14778;SDS011;7481;53.750;10.570;2023-01-01T12:10:52;5.27;;;2.00;;
14778;SDS011;7481;53.750;10.570;2023-01-01T12:13:56;3.37;;;1.90;;
14778;SDS011;7481;53.750;10.570;2023-01-01T12:16:51;4.37;;;1.80;;
14778;SDS011;7481;53.750;10.570;2023-01-01T12:22:47;6.90;;;1.50;;
14778;SDS011;7481;53.750;10.570;2023-01-01T12:25:37;4.73;;;1.60;;
14778;SDS011;7481;53.750;10.570;2023-01-01T12:28:28;2.60;;;1.43;;
14778;SDS011;7481;53.750;10.570;2023-01-01T12:31:22;5.10;;;1.77;;
14778;SDS011;7481;53.750;10.570;2023-01-01T12:34:17;5.33;;;1.87;;
14778;SDS011;7481;53.750;10.570;2023-01-01T12:37:13;3.23;;;1.80;;
14778;SDS011;7481;53.750;10.570;2023-01-01T12:43:18;8.33;;;1.73;;
14778;SDS011;7481;53.750;10.570;2023-01-01T12:46:22;3.40;;;1.20;;
14778;SDS011;7481;53.750;10.570;2023-01-01T12:49:16;8.33;;;2.20;;
14778;SDS011;7481;53.750;10.570;2023-01-01T12:52:15;6.10;;;1.87;;
14778;SDS011;7481;53.750;10.570;2023-01-01T13:04:19;3.53;;;1.10;;
14778;SDS011;7481;53.750;10.570;2023-01-01T13:07:07;7.63;;;1.70;;
14778;SDS011;7481;53.750;10.570;2023-01-01T13:09:58;6.07;;;1.60;;
14778;SDS011;7481;53.750;10.570;2023-01-01T13:12:47;4.10;;;1.20;;
14778;SDS011;7481;53.750;10.570;2023-01-01T13:18:26;4.37;;;1.30;;
14778;SDS011;7481;53.750;10.570;2023-01-01T13:24:03;3.00;;;1.30;;
14778;SDS011;7481;53.750;10.570;2023-01-01T13:26:57;5.07;;;1.37;;
14778;SDS011;7481;53.750;10.570;2023-01-01T13:29:44;3.87;;;1.47;;
14778;SDS011;7481;53.750;10.570;2023-01-01T13:32:38;5.67;;;1.50;;
14778;SDS011;7481;53.750;10.570;2023-01-01T13:35:40;4.70;;;1.70;;
14778;SDS011;7481;53.750;10.570;2023-01-01T13:41:47;5.43;;;1.40;;
14778;SDS011;7481;53.750;10.570;2023-01-01T13:44:35;3.37;;;1.53;;
14778;SDS011;7481;53.750;10.570;2023-01-01T13:50:19;2.97;;;1.27;;
14778;SDS011;7481;53.750;10.570;2023-01-01T13:53:26;6.37;;;1.93;;
14778;SDS011;7481;53.750;10.570;2023-01-01T14:05:19;3.87;;;2.00;;
14778;SDS011;7481;53.750;10.570;2023-01-01T14:11:16;9.30;;;2.20;;
14778;SDS011;7481;53.750;10.570;2023-01-01T14:14:26;5.83;;;1.73;;
14778;SDS011;7481;53.750;10.570;2023-01-01T14:17:14;4.90;;;1.93;;
14778;SDS011;7481;53.750;10.570;2023-01-01T14:20:04;8.30;;;1.67;;
14778;SDS011;7481;53.750;10.570;2023-01-01T14:22:51;5.87;;;1.80;;
14778;SDS011;7481;53.750;10.570;2023-01-01T14:25:39;6.27;;;2.00;;
14778;SDS011;7481;53.750;10.570;2023-01-01T14:28:31;6.57;;;1.77;;
14778;SDS011;7481;53.750;10.570;2023-01-01T14:31:20;6.40;;;1.80;;
14778;SDS011;7481;53.750;10.570;2023-01-01T14:34:15;9.10;;;2.10;;
14778;SDS011;7481;53.750;10.570;2023-01-01T14:37:18;4.20;;;2.00;;
14778;SDS011;7481;53.750;10.570;2023-01-01T14:40:41;4.80;;;2.10;;
14778;SDS011;7481;53.750;10.570;2023-01-01T14:43:21;6.30;;;2.30;;
14778;SDS011;7481;53.750;10.570;2023-01-01T14:46:18;5.17;;;1.90;;
14778;SDS011;7481;53.750;10.570;2023-01-01T14:49:07;7.80;;;2.23;;
14778;SDS011;7481;53.750;10.570;2023-01-01T14:52:02;7.93;;;2.30;;
14778;SDS011;7481;53.750;10.570;2023-01-01T14:54:51;5.00;;;1.90;;
14778;SDS011;7481;53.750;10.570;2023-01-01T14:57:40;4.23;;;1.70;;
14778;SDS011;7481;53.750;10.570;2023-01-01T15:00:32;8.40;;;2.17;;
14778;SDS011;7481;53.750;10.570;2023-01-01T15:03:20;8.03;;;1.90;;
14778;SDS011;7481;53.750;10.570;2023-01-01T15:06:14;6.73;;;1.97;;
14778;SDS011;7481;53.750;10.570;2023-01-01T15:09:03;4.43;;;1.40;;
14778;SDS011;7481;53.750;10.570;2023-01-01T15:11:52;9.13;;;2.27;;
14778;SDS011;7481;53.750;10.570;2023-01-01T15:14:41;8.47;;;2.20;;
14778;SDS011;7481;53.750;10.570;2023-01-01T15:17:33;8.23;;;2.57;;
14778;SDS011;7481;53.750;10.570;2023-01-01T15:20:30;6.43;;;1.87;;
14778;SDS011;7481;53.750;10.570;2023-01-01T15:23:18;5.13;;;2.30;;
14778;SDS011;7481;53.750;10.570;2023-01-01T15:26:06;4.73;;;1.90;;
14778;SDS011;7481;53.750;10.570;2023-01-01T15:28:55;9.00;;;2.47;;
14778;SDS011;7481;53.750;10.570;2023-01-01T15:31:43;7.40;;;2.23;;
14778;SDS011;7481;53.750;10.570;2023-01-01T15:34:33;7.67;;;1.77;;
14778;SDS011;7481;53.750;10.570;2023-01-01T15:45:50;7.03;;;2.30;;
14778;SDS011;7481;53.750;10.570;2023-01-01T15:48:45;11.30;;;2.47;;
14778;SDS011;7481;53.750;10.570;2023-01-01T15:51:33;11.03;;;2.27;;
14778;SDS011;7481;53.750;10.570;2023-01-01T15:54:20;8.13;;;2.13;;
14778;SDS011;7481;53.750;10.570;2023-01-01T15:57:18;8.90;;;2.47;;
14778;SDS011;7481;53.750;10.570;2023-01-01T16:00:16;6.43;;;2.43;;
14778;SDS011;7481;53.750;10.570;2023-01-01T16:03:14;8.07;;;2.30;;
14778;SDS011;7481;53.750;10.570;2023-01-01T16:06:03;7.97;;;1.93;;
14778;SDS011;7481;53.750;10.570;2023-01-01T16:08:50;9.13;;;2.00;;
14778;SDS011;7481;53.750;10.570;2023-01-01T16:11:38;8.53;;;2.20;;
14778;SDS011;7481;53.750;10.570;2023-01-01T16:14:25;10.77;;;2.50;;
14778;SDS011;7481;53.750;10.570;2023-01-01T16:17:17;8.00;;;2.83;;
14778;SDS011;7481;53.750;10.570;2023-01-01T16:20:05;9.40;;;4.33;;
14778;SDS011;7481;53.750;10.570;2023-01-01T16:22:53;5.23;;;2.47;;
14778;SDS011;7481;53.750;10.570;2023-01-01T16:25:40;5.30;;;2.30;;
14778;SDS011;7481;53.750;10.570;2023-01-01T16:28:27;7.47;;;2.43;;
14778;SDS011;7481;53.750;10.570;2023-01-01T16:31:15;7.63;;;2.33;;
14778;SDS011;7481;53.750;10.570;2023-01-01T16:34:03;9.27;;;3.40;;
14778;SDS011;7481;53.750;10.570;2023-01-01T16:36:51;5.63;;;2.50;;
14778;SDS011;7481;53.750;10.570;2023-01-01T16:39:38;6.53;;;2.63;;
14778;SDS011;7481;53.750;10.570;2023-01-01T16:42:26;7.80;;;2.57;;
14778;SDS011;7481;53.750;10.570;2023-01-01T16:45:15;10.30;;;3.20;;
14778;SDS011;7481;53.750;10.570;2023-01-01T16:48:03;8.67;;;2.60;;
14778;SDS011;7481;53.750;10.570;2023-01-01T16:50:50;10.03;;;3.60;;
14778;SDS011;7481;53.750;10.570;2023-01-01T16:53:38;11.60;;;3.67;;
14778;SDS011;7481;53.750;10.570;2023-01-01T16:56:26;7.87;;;3.40;;
14778;SDS011;7481;53.750;10.570;2023-01-01T16:59:13;11.50;;;3.87;;
14778;SDS011;7481;53.750;10.570;2023-01-01T17:02:00;9.73;;;3.20;;
14778;SDS011;7481;53.750;10.570;2023-01-01T17:04:48;7.70;;;2.40;;
14778;SDS011;7481;53.750;10.570;2023-01-01T17:07:36;7.20;;;2.40;;
14778;SDS011;7481;53.750;10.570;2023-01-01T17:10:23;7.27;;;2.70;;
14778;SDS011;7481;53.750;10.570;2023-01-01T17:13:10;4.40;;;2.60;;
14778;SDS011;7481;53.750;10.570;2023-01-01T17:15:58;7.93;;;2.80;;
14778;SDS011;7481;53.750;10.570;2023-01-01T17:18:49;8.83;;;2.90;;
14778;SDS011;7481;53.750;10.570;2023-01-01T17:21:56;8.97;;;3.00;;
14778;SDS011;7481;53.750;10.570;2023-01-01T17:24:44;5.50;;;2.20;;
14778;SDS011;7481;53.750;10.570;2023-01-01T17:27:33;4.97;;;2.13;;
14778;SDS011;7481;53.750;10.570;2023-01-01T17:30:21;6.67;;;2.27;;
14778;SDS011;7481;53.750;10.570;2023-01-01T17:33:08;6.47;;;2.40;;
14778;SDS011;7481;53.750;10.570;2023-01-01T17:35:55;10.27;;;3.80;;
14778;SDS011;7481;53.750;10.570;2023-01-01T17:38:43;21.00;;;7.40;;
14778;SDS011;7481;53.750;10.570;2023-01-01T17:41:30;14.40;;;6.53;;
14778;SDS011;7481;53.750;10.570;2023-01-01T17:44:18;15.43;;;5.70;;
14778;SDS011;7481;53.750;10.570;2023-01-01T17:47:06;10.67;;;4.90;;
14778;SDS011;7481;53.750;10.570;2023-01-01T17:49:54;9.67;;;3.77;;
14778;SDS011;7481;53.750;10.570;2023-01-01T17:52:41;23.97;;;12.73;;
14778;SDS011;7481;53.750;10.570;2023-01-01T17:55:28;19.63;;;8.80;;
14778;SDS011;7481;53.750;10.570;2023-01-01T17:58:16;14.13;;;6.03;;
14778;SDS011;7481;53.750;10.570;2023-01-01T18:04:01;17.50;;;7.67;;
14778;SDS011;7481;53.750;10.570;2023-01-01T18:06:49;11.87;;;6.00;;
14778;SDS011;7481;53.750;10.570;2023-01-01T18:09:40;17.73;;;6.70;;
14778;SDS011;7481;53.750;10.570;2023-01-01T18:12:28;14.67;;;6.00;;
14778;SDS011;7481;53.750;10.570;2023-01-01T18:15:15;14.63;;;7.20;;
14778;SDS011;7481;53.750;10.570;2023-01-01T18:18:03;14.10;;;5.97;;
14778;SDS011;7481;53.750;10.570;2023-01-01T18:20:50;9.83;;;5.33;;
14778;SDS011;7481;53.750;10.570;2023-01-01T18:23:37;15.97;;;5.37;;
14778;SDS011;7481;53.750;10.570;2023-01-01T18:26:26;15.50;;;5.00;;
14778;SDS011;7481;53.750;10.570;2023-01-01T18:29:14;13.13;;;5.47;;
14778;SDS011;7481;53.750;10.570;2023-01-01T18:32:02;13.00;;;7.10;;
14778;SDS011;7481;53.750;10.570;2023-01-01T18:34:49;10.43;;;3.27;;
14778;SDS011;7481;53.750;10.570;2023-01-01T18:37:37;6.97;;;3.00;;